sensor_id;sensor_type;location;lat;lon;timestamp;pressure;altitude;pressure_sealevel;temperature;humidity
71974;BME280;59840;52.122;5.404;2023-05-16T00:00:58;102065.59;;;8.99;92.22
71974;BME280;59840;52.122;5.404;2023-05-16T00:03:26;102064.78;;;8.92;91.84
71974;BME280;59840;52.122;5.404;2023-05-16T00:05:53;102076.09;;;8.86;91.98
71974;BME280;59840;52.122;5.404;2023-05-16T00:08:19;102067.59;;;8.84;92.03
71974;BME280;59840;52.122;5.404;2023-05-16T00:10:46;102074.88;;;8.82;92.45
71974;BME280;59840;52.122;5.404;2023-05-16T00:13:12;102077.72;;;8.80;92.53
71974;BME280;59840;52.122;5.404;2023-05-16T00:15:39;102078.31;;;8.76;93.46
71974;BME280;59840;52.122;5.404;2023-05-16T00:18:06;102080.34;;;8.73;93.19
71974;BME280;59840;52.122;5.404;2023-05-16T00:20:32;102085.00;;;8.71;93.07
71974;BME280;59840;52.122;5.404;2023-05-16T00:23:00;102079.53;;;8.66;92.75
71974;BME280;59840;52.122;5.404;2023-05-16T00:25:26;102084.19;;;8.64;92.99
71974;BME280;59840;52.122;5.404;2023-05-16T00:27:54;102082.16;;;8.60;91.79
71974;BME280;59840;52.122;5.404;2023-05-16T00:30:20;102077.50;;;8.55;92.22
71974;BME280;59840;52.122;5.404;2023-05-16T00:32:48;102076.28;;;8.51;92.42
71974;BME280;59840;52.122;5.404;2023-05-16T00:35:14;102075.44;;;8.44;92.73
71974;BME280;59840;52.122;5.404;2023-05-16T00:37:41;102069.97;;;8.39;93.21
71974;BME280;59840;52.122;5.404;2023-05-16T00:40:08;102080.88;;;8.36;93.01
71974;BME280;59840;52.122;5.404;2023-05-16T00:42:35;102071.56;;;8.33;92.92
71974;BME280;59840;52.122;5.404;2023-05-16T00:45:01;102072.78;;;8.31;92.47
71974;BME280;59840;52.122;5.404;2023-05-16T00:47:29;102076.81;;;8.27;93.20
71974;BME280;59840;52.122;5.404;2023-05-16T00:49:55;102077.22;;;8.24;92.68
71974;BME280;59840;52.122;5.404;2023-05-16T00:52:22;102075.16;;;8.19;93.22
71974;BME280;59840;52.122;5.404;2023-05-16T00:54:50;102082.03;;;8.20;92.91
71974;BME280;59840;52.122;5.404;2023-05-16T00:57:17;102078.38;;;8.15;92.91
71974;BME280;59840;52.122;5.404;2023-05-16T00:59:45;102084.03;;;8.12;93.10
71974;BME280;59840;52.122;5.404;2023-05-16T01:02:12;102084.03;;;8.12;92.43
71974;BME280;59840;52.122;5.404;2023-05-16T01:04:40;102085.66;;;8.13;92.59
71974;BME280;59840;52.122;5.404;2023-05-16T01:07:06;102083.22;;;8.11;91.99
71974;BME280;59840;52.122;5.404;2023-05-16T01:09:33;102076.72;;;8.07;92.24
71974;BME280;59840;52.122;5.404;2023-05-16T01:12:02;102084.81;;;8.05;92.36
71974;BME280;59840;52.122;5.404;2023-05-16T01:14:50;102088.44;;;8.04;91.69
71974;BME280;59840;52.122;5.404;2023-05-16T01:22:28;102087.59;;;7.97;91.90
71974;BME280;59840;52.122;5.404;2023-05-16T01:27:43;102089.41;;;7.90;92.35
71974;BME280;59840;52.122;5.404;2023-05-16T01:30:16;102092.88;;;7.91;92.58
71974;BME280;59840;52.122;5.404;2023-05-16T01:32:43;102091.03;;;7.91;91.53
71974;BME280;59840;52.122;5.404;2023-05-16T01:35:12;102085.78;;;7.91;92.07
71974;BME280;59840;52.122;5.404;2023-05-16T01:37:44;102082.75;;;7.88;91.98
71974;BME280;59840;52.122;5.404;2023-05-16T01:40:32;102087.19;;;7.87;92.44
71974;BME280;59840;52.122;5.404;2023-05-16T01:43:03;102081.69;;;7.82;91.99
71974;BME280;59840;52.122;5.404;2023-05-16T01:45:33;102090.34;;;7.76;92.47
71974;BME280;59840;52.122;5.404;2023-05-16T01:48:13;102092.56;;;7.72;92.69
71974;BME280;59840;52.122;5.404;2023-05-16T01:50:52;102097.56;;;7.67;93.20
71974;BME280;59840;52.122;5.404;2023-05-16T01:53:24;102099.19;;;7.62;92.85
71974;BME280;59840;52.122;5.404;2023-05-16T01:55:55;102100.38;;;7.59;92.87
71974;BME280;59840;52.122;5.404;2023-05-16T01:58:25;102099.97;;;7.56;92.93
71974;BME280;59840;52.122;5.404;2023-05-16T02:00:59;102101.97;;;7.54;93.41
71974;BME280;59840;52.122;5.404;2023-05-16T02:03:26;102102.78;;;7.54;93.11
71974;BME280;59840;52.122;5.404;2023-05-16T02:05:53;102098.34;;;7.55;92.73
71974;BME280;59840;52.122;5.404;2023-05-16T02:08:20;102107.25;;;7.60;92.61
71974;BME280;59840;52.122;5.404;2023-05-16T02:10:46;102107.44;;;7.59;92.26
71974;BME280;59840;52.122;5.404;2023-05-16T02:13:13;102108.25;;;7.59;92.35
71974;BME280;59840;52.122;5.404;2023-05-16T02:15:39;102109.06;;;7.60;92.54
71974;BME280;59840;52.122;5.404;2023-05-16T02:18:06;102115.72;;;7.56;92.47
71974;BME280;59840;52.122;5.404;2023-05-16T02:20:33;102117.72;;;7.54;92.62
71974;BME280;59840;52.122;5.404;2023-05-16T02:22:59;102116.47;;;7.50;92.49
71974;BME280;59840;52.122;5.404;2023-05-16T02:25:26;102119.09;;;7.50;92.83
71974;BME280;59840;52.122;5.404;2023-05-16T02:27:52;102120.31;;;7.47;92.91
71974;BME280;59840;52.122;5.404;2023-05-16T02:30:19;102124.56;;;7.48;93.24
71974;BME280;59840;52.122;5.404;2023-05-16T02:32:46;102118.88;;;7.45;92.99
71974;BME280;59840;52.122;5.404;2023-05-16T02:35:14;102123.31;;;7.44;93.38
71974;BME280;59840;52.122;5.404;2023-05-16T02:37:41;102123.50;;;7.43;93.73
71974;BME280;59840;52.122;5.404;2023-05-16T02:40:08;102122.06;;;7.40;93.91
71974;BME280;59840;52.122;5.404;2023-05-16T02:42:35;102131.75;;;7.39;94.27
71974;BME280;59840;52.122;5.404;2023-05-16T02:45:01;102134.56;;;7.38;94.08
71974;BME280;59840;52.122;5.404;2023-05-16T02:47:28;102134.13;;;7.34;94.36
71974;BME280;59840;52.122;5.404;2023-05-16T02:49:54;102131.31;;;7.36;94.63
71974;BME280;59840;52.122;5.404;2023-05-16T02:52:21;102133.13;;;7.35;94.43
71974;BME280;59840;52.122;5.404;2023-05-16T02:54:48;102123.81;;;7.33;94.60
71974;BME280;59840;52.122;5.404;2023-05-16T02:57:34;102132.50;;;7.33;94.73
71974;BME280;59840;52.122;5.404;2023-05-16T03:00:01;102137.16;;;7.31;94.89
71974;BME280;59840;52.122;5.404;2023-05-16T03:02:27;102132.09;;;7.30;95.11
71974;BME280;59840;52.122;5.404;2023-05-16T03:04:54;102134.09;;;7.28;95.28
71974;BME280;59840;52.122;5.404;2023-05-16T03:07:21;102148.63;;;7.24;95.47
71974;BME280;59840;52.122;5.404;2023-05-16T03:09:47;102137.50;;;7.22;95.41
71974;BME280;59840;52.122;5.404;2023-05-16T03:12:13;102147.94;;;7.15;95.49
71974;BME280;59840;52.122;5.404;2023-05-16T03:14:40;102141.19;;;7.06;96.08
71974;BME280;59840;52.122;5.404;2023-05-16T03:17:07;102146.25;;;7.07;96.07
71974;BME280;59840;52.122;5.404;2023-05-16T03:19:33;102141.81;;;7.08;96.27
71974;BME280;59840;52.122;5.404;2023-05-16T03:22:00;102146.44;;;7.06;96.02
71974;BME280;59840;52.122;5.404;2023-05-16T03:24:27;102157.31;;;7.03;96.36
71974;BME280;59840;52.122;5.404;2023-05-16T03:26:53;102151.38;;;6.94;96.57
71974;BME280;59840;52.122;5.404;2023-05-16T03:29:20;102156.75;;;6.86;96.82
71974;BME280;59840;52.122;5.404;2023-05-16T03:31:47;102163.00;;;6.85;96.58
71974;BME280;59840;52.122;5.404;2023-05-16T03:34:13;102153.94;;;6.88;97.34
71974;BME280;59840;52.122;5.404;2023-05-16T03:36:40;102155.50;;;6.82;97.04
71974;BME280;59840;52.122;5.404;2023-05-16T03:39:06;102155.69;;;6.81;97.21
71974;BME280;59840;52.122;5.404;2023-05-16T03:41:33;102160.31;;;6.79;97.05
71974;BME280;59840;52.122;5.404;2023-05-16T03:44:00;102161.50;;;6.76;97.73
71974;BME280;59840;52.122;5.404;2023-05-16T03:46:26;102161.50;;;6.76;97.75
71974;BME280;59840;52.122;5.404;2023-05-16T03:48:53;102166.31;;;6.72;97.78
71974;BME280;59840;52.122;5.404;2023-05-16T03:51:19;102164.69;;;6.71;97.76
71974;BME280;59840;52.122;5.404;2023-05-16T03:53:46;102169.47;;;6.68;97.99
71974;BME280;59840;52.122;5.404;2023-05-16T03:56:13;102176.28;;;6.62;97.95
71974;BME280;59840;52.122;5.404;2023-05-16T03:58:39;102171.84;;;6.63;97.80
71974;BME280;59840;52.122;5.404;2023-05-16T04:01:06;102166.03;;;6.67;97.58
71974;BME280;59840;52.122;5.404;2023-05-16T04:03:32;102173.09;;;6.67;97.65
71974;BME280;59840;52.122;5.404;2023-05-16T04:05:59;102171.09;;;6.69;97.69
71974;BME280;59840;52.122;5.404;2023-05-16T04:08:26;102179.34;;;6.66;97.58
71974;BME280;59840;52.122;5.404;2023-05-16T04:10:52;102179.53;;;6.64;97.74
71974;BME280;59840;52.122;5.404;2023-05-16T04:13:19;102173.91;;;6.67;97.86
71974;BME280;59840;52.122;5.404;2023-05-16T04:15:46;102183.03;;;6.71;97.81
71974;BME280;59840;52.122;5.404;2023-05-16T04:18:12;102185.28;;;6.75;98.00
71974;BME280;59840;52.122;5.404;2023-05-16T04:20:41;102180.03;;;6.75;98.38
71974;BME280;59840;52.122;5.404;2023-05-16T04:23:08;102180.31;;;6.80;97.68
71974;BME280;59840;52.122;5.404;2023-05-16T04:25:37;102178.75;;;6.85;97.80
71974;BME280;59840;52.122;5.404;2023-05-16T04:28:03;102189.31;;;6.92;97.39
71974;BME280;59840;52.122;5.404;2023-05-16T04:30:30;102186.53;;;7.00;97.93
71974;BME280;59840;52.122;5.404;2023-05-16T04:32:57;102192.13;;;7.12;97.19
71974;BME280;59840;52.122;5.404;2023-05-16T04:35:27;102197.06;;;7.21;96.51
71974;BME280;59840;52.122;5.404;2023-05-16T04:37:54;102197.91;;;7.28;96.30
71974;BME280;59840;52.122;5.404;2023-05-16T04:40:21;102196.41;;;7.40;96.09
71974;BME280;59840;52.122;5.404;2023-05-16T04:42:47;102194.06;;;7.52;95.69
71974;BME280;59840;52.122;5.404;2023-05-16T04:45:14;102194.78;;;8.02;94.87
71974;BME280;59840;52.122;5.404;2023-05-16T04:47:40;102196.03;;;8.40;92.37
71974;BME280;59840;52.122;5.404;2023-05-16T04:50:08;102199.34;;;8.62;91.18
71974;BME280;59840;52.122;5.404;2023-05-16T04:52:34;102202.56;;;8.58;90.79
71974;BME280;59840;52.122;5.404;2023-05-16T04:55:01;102199.91;;;8.51;90.56
71974;BME280;59840;52.122;5.404;2023-05-16T04:57:27;102206.34;;;8.42;90.57
71974;BME280;59840;52.122;5.404;2023-05-16T04:59:54;102207.50;;;8.33;91.27
71974;BME280;59840;52.122;5.404;2023-05-16T05:02:21;102210.59;;;8.43;91.25
71974;BME280;59840;52.122;5.404;2023-05-16T05:04:48;102215.28;;;8.48;90.75
71974;BME280;59840;52.122;5.404;2023-05-16T05:07:14;102214.50;;;8.54;90.38
71974;BME280;59840;52.122;5.404;2023-05-16T05:09:41;102216.97;;;8.62;90.26
71974;BME280;59840;52.122;5.404;2023-05-16T05:12:08;102210.69;;;8.63;90.13
71974;BME280;59840;52.122;5.404;2023-05-16T05:14:35;102214.94;;;8.64;89.39
71974;BME280;59840;52.122;5.404;2023-05-16T05:17:01;102222.03;;;8.70;90.02
71974;BME280;59840;52.122;5.404;2023-05-16T05:19:28;102216.16;;;8.74;90.07
71974;BME280;59840;52.122;5.404;2023-05-16T05:21:55;102218.00;;;8.81;89.15
71974;BME280;59840;52.122;5.404;2023-05-16T05:24:21;102214.78;;;8.85;89.08
71974;BME280;59840;52.122;5.404;2023-05-16T05:26:48;102223.94;;;8.96;89.75
71974;BME280;59840;52.122;5.404;2023-05-16T05:29:14;102228.59;;;9.07;88.65
71974;BME280;59840;52.122;5.404;2023-05-16T05:31:41;102228.41;;;9.15;88.85
71974;BME280;59840;52.122;5.404;2023-05-16T05:34:08;102231.69;;;9.24;88.64
71974;BME280;59840;52.122;5.404;2023-05-16T05:36:34;102243.81;;;9.18;87.88
71974;BME280;59840;52.122;5.404;2023-05-16T05:39:01;102229.59;;;9.06;88.20
71974;BME280;59840;52.122;5.404;2023-05-16T05:41:28;102240.53;;;8.96;88.19
71974;BME280;59840;52.122;5.404;2023-05-16T05:43:55;102233.25;;;8.92;89.09
71974;BME280;59840;52.122;5.404;2023-05-16T05:46:23;102232.44;;;9.04;89.90
71974;BME280;59840;52.122;5.404;2023-05-16T05:48:50;102244.44;;;9.20;89.79
71974;BME280;59840;52.122;5.404;2023-05-16T05:51:17;102237.56;;;9.32;87.92
71974;BME280;59840;52.122;5.404;2023-05-16T05:53:44;102239.78;;;9.29;89.04
71974;BME280;59840;52.122;5.404;2023-05-16T05:56:11;102244.25;;;9.35;87.39
71974;BME280;59840;52.122;5.404;2023-05-16T05:58:38;102247.28;;;9.45;87.97
71974;BME280;59840;52.122;5.404;2023-05-16T06:01:04;102247.06;;;9.47;86.53
71974;BME280;59840;52.122;5.404;2023-05-16T06:03:31;102250.13;;;9.57;86.24
71974;BME280;59840;52.122;5.404;2023-05-16T06:05:58;102250.13;;;9.57;83.87
71974;BME280;59840;52.122;5.404;2023-05-16T06:08:24;102248.50;;;9.62;83.82
71974;BME280;59840;52.122;5.404;2023-05-16T06:10:51;102268.59;;;9.70;83.49
71974;BME280;59840;52.122;5.404;2023-05-16T06:13:17;102261.69;;;9.69;82.45
71974;BME280;59840;52.122;5.404;2023-05-16T06:15:49;102264.91;;;9.71;83.32
71974;BME280;59840;52.122;5.404;2023-05-16T06:18:16;102269.78;;;9.74;81.13
71974;BME280;59840;52.122;5.404;2023-05-16T06:20:42;102260.84;;;9.75;81.02
71974;BME280;59840;52.122;5.404;2023-05-16T06:23:09;102271.00;;;9.78;81.50
71974;BME280;59840;52.122;5.404;2023-05-16T06:25:36;102280.53;;;9.79;81.37
71974;BME280;59840;52.122;5.404;2023-05-16T06:28:02;102279.50;;;9.80;82.05
71974;BME280;59840;52.122;5.404;2023-05-16T06:30:29;102277.47;;;9.82;80.89
71974;BME280;59840;52.122;5.404;2023-05-16T06:32:56;102282.16;;;9.93;81.33
71974;BME280;59840;52.122;5.404;2023-05-16T06:35:22;102281.13;;;9.94;82.02
71974;BME280;59840;52.122;5.404;2023-05-16T06:37:49;102287.81;;;9.97;82.15
71974;BME280;59840;52.122;5.404;2023-05-16T06:40:15;102288.66;;;9.97;79.87
71974;BME280;59840;52.122;5.404;2023-05-16T06:42:42;102273.84;;;9.96;79.42
71974;BME280;59840;52.122;5.404;2023-05-16T06:45:09;102264.91;;;10.04;80.82
71974;BME280;59840;52.122;5.404;2023-05-16T06:47:36;102278.25;;;10.09;80.69
71974;BME280;59840;52.122;5.404;2023-05-16T06:50:03;102287.19;;;10.08;79.07
71974;BME280;59840;52.122;5.404;2023-05-16T06:52:30;102278.09;;;9.97;79.42
71974;BME280;59840;52.122;5.404;2023-05-16T06:54:56;102283.56;;;9.96;79.08
71974;BME280;59840;52.122;5.404;2023-05-16T06:57:23;102281.75;;;9.96;79.13
71974;BME280;59840;52.122;5.404;2023-05-16T06:59:49;102276.84;;;10.06;80.40
71974;BME280;59840;52.122;5.404;2023-05-16T07:02:16;102287.59;;;10.12;80.55
71974;BME280;59840;52.122;5.404;2023-05-16T07:04:43;102277.84;;;10.19;79.91
71974;BME280;59840;52.122;5.404;2023-05-16T07:07:09;102283.75;;;10.21;79.30
71974;BME280;59840;52.122;5.404;2023-05-16T07:09:36;102279.88;;;10.17;78.41
71974;BME280;59840;52.122;5.404;2023-05-16T07:12:03;102285.56;;;10.14;77.34
71974;BME280;59840;52.122;5.404;2023-05-16T07:14:30;102295.31;;;10.06;78.19
71974;BME280;59840;52.122;5.404;2023-05-16T07:16:56;102296.31;;;10.05;78.56
71974;BME280;59840;52.122;5.404;2023-05-16T07:19:23;102290.66;;;10.28;76.82
71974;BME280;59840;52.122;5.404;2023-05-16T07:21:49;102285.72;;;10.45;78.83
71974;BME280;59840;52.122;5.404;2023-05-16T07:24:16;102289.97;;;10.46;75.24
71974;BME280;59840;52.122;5.404;2023-05-16T07:26:43;102290.84;;;10.33;75.49
71974;BME280;59840;52.122;5.404;2023-05-16T07:29:09;102288.16;;;10.40;77.48
71974;BME280;59840;52.122;5.404;2023-05-16T07:31:36;102299.72;;;10.52;76.20
71974;BME280;59840;52.122;5.404;2023-05-16T07:34:03;102317.97;;;10.60;75.57
71974;BME280;59840;52.122;5.404;2023-05-16T07:36:29;102289.91;;;10.72;76.21
71974;BME280;59840;52.122;5.404;2023-05-16T07:38:56;102288.63;;;10.82;75.87
71974;BME280;59840;52.122;5.404;2023-05-16T07:41:23;102297.94;;;10.91;76.85
71974;BME280;59840;52.122;5.404;2023-05-16T07:43:50;102301.19;;;10.86;74.14
71974;BME280;59840;52.122;5.404;2023-05-16T07:46:17;102285.34;;;10.86;74.77
71974;BME280;59840;52.122;5.404;2023-05-16T07:48:44;102283.50;;;10.93;74.20
71974;BME280;59840;52.122;5.404;2023-05-16T07:51:10;102308.91;;;10.88;75.22
71974;BME280;59840;52.122;5.404;2023-05-16T07:53:37;102289.38;;;10.95;73.85
71974;BME280;59840;52.122;5.404;2023-05-16T07:56:04;102291.97;;;11.08;74.49
71974;BME280;59840;52.122;5.404;2023-05-16T07:58:32;102301.00;;;11.26;73.82
71974;BME280;59840;52.122;5.404;2023-05-16T08:00:59;102305.13;;;11.15;72.50
71974;BME280;59840;52.122;5.404;2023-05-16T08:03:25;102307.66;;;10.97;75.15
71974;BME280;59840;52.122;5.404;2023-05-16T08:05:52;102320.13;;;10.77;74.47
71974;BME280;59840;52.122;5.404;2023-05-16T08:08:19;102317.78;;;10.55;76.10
71974;BME280;59840;52.122;5.404;2023-05-16T08:10:45;102318.41;;;10.44;77.16
71974;BME280;59840;52.122;5.404;2023-05-16T08:13:12;102319.06;;;10.33;75.57
71974;BME280;59840;52.122;5.404;2023-05-16T08:15:39;102317.44;;;10.25;76.02
71974;BME280;59840;52.122;5.404;2023-05-16T08:18:11;102315.00;;;10.30;76.04
71974;BME280;59840;52.122;5.404;2023-05-16T08:20:39;102315.31;;;10.60;74.68
71974;BME280;59840;52.122;5.404;2023-05-16T08:23:07;102310.94;;;10.92;75.66
71974;BME280;59840;52.122;5.404;2023-05-16T08:25:34;102304.72;;;11.12;76.84
71974;BME280;59840;52.122;5.404;2023-05-16T08:28:01;102293.53;;;11.16;75.63
71974;BME280;59840;52.122;5.404;2023-05-16T08:30:28;102296.28;;;11.34;76.50
71974;BME280;59840;52.122;5.404;2023-05-16T08:32:55;102300.94;;;11.64;75.23
71974;BME280;59840;52.122;5.404;2023-05-16T08:35:21;102298.69;;;11.92;73.98
71974;BME280;59840;52.122;5.404;2023-05-16T08:37:48;102301.34;;;11.92;73.82
71974;BME280;59840;52.122;5.404;2023-05-16T08:40:15;102318.59;;;11.70;70.42
71974;BME280;59840;52.122;5.404;2023-05-16T08:42:41;102302.38;;;11.35;70.24
71974;BME280;59840;52.122;5.404;2023-05-16T08:45:10;102310.19;;;11.17;71.56
71974;BME280;59840;52.122;5.404;2023-05-16T08:47:38;102307.88;;;11.33;72.76
71974;BME280;59840;52.122;5.404;2023-05-16T08:50:08;102306.59;;;11.67;70.40
71974;BME280;59840;52.122;5.404;2023-05-16T08:52:37;102297.56;;;11.82;72.91
71974;BME280;59840;52.122;5.404;2023-05-16T08:55:06;102311.81;;;12.05;68.60
71974;BME280;59840;52.122;5.404;2023-05-16T08:57:37;102302.69;;;12.01;68.28
71974;BME280;59840;52.122;5.404;2023-05-16T09:00:06;102296.69;;;12.13;66.13
71974;BME280;59840;52.122;5.404;2023-05-16T09:02:41;102315.56;;;12.16;66.76
71974;BME280;59840;52.122;5.404;2023-05-16T09:05:10;102304.19;;;12.34;67.41
71974;BME280;59840;52.122;5.404;2023-05-16T09:07:37;102309.47;;;12.52;67.33
71974;BME280;59840;52.122;5.404;2023-05-16T09:10:05;102305.28;;;12.81;68.47
71974;BME280;59840;52.122;5.404;2023-05-16T09:12:33;102314.19;;;12.68;66.58
71974;BME280;59840;52.122;5.404;2023-05-16T09:15:01;102313.03;;;12.46;68.00
71974;BME280;59840;52.122;5.404;2023-05-16T09:17:41;102330.94;;;12.26;65.78
71974;BME280;59840;52.122;5.404;2023-05-16T09:20:18;102330.31;;;12.05;61.54
71974;BME280;59840;52.122;5.404;2023-05-16T09:22:51;102314.16;;;12.14;65.22
71974;BME280;59840;52.122;5.404;2023-05-16T09:25:19;102310.66;;;12.38;66.12
71974;BME280;59840;52.122;5.404;2023-05-16T09:27:58;102328.97;;;12.58;62.44
71974;BME280;59840;52.122;5.404;2023-05-16T09:30:32;102306.00;;;12.52;62.05
71974;BME280;59840;52.122;5.404;2023-05-16T09:33:00;102300.06;;;12.56;62.24
71974;BME280;59840;52.122;5.404;2023-05-16T09:35:27;102313.59;;;12.66;59.71
71974;BME280;59840;52.122;5.404;2023-05-16T09:38:16;102314.78;;;12.70;63.15
71974;BME280;59840;52.122;5.404;2023-05-16T09:40:44;102313.53;;;12.73;60.84
71974;BME280;59840;52.122;5.404;2023-05-16T09:43:14;102313.31;;;12.74;59.75
71974;BME280;59840;52.122;5.404;2023-05-16T09:45:45;102317.03;;;12.85;64.08
71974;BME280;59840;52.122;5.404;2023-05-16T09:48:14;102323.81;;;12.63;64.58
71974;BME280;59840;52.122;5.404;2023-05-16T09:50:46;102330.06;;;12.50;66.50
71974;BME280;59840;52.122;5.404;2023-05-16T09:53:15;102327.72;;;12.42;66.76
71974;BME280;59840;52.122;5.404;2023-05-16T09:55:42;102325.44;;;12.27;62.69
71974;BME280;59840;52.122;5.404;2023-05-16T09:58:08;102318.31;;;12.46;63.25
71974;BME280;59840;52.122;5.404;2023-05-16T10:00:35;102318.28;;;12.83;62.65
71974;BME280;59840;52.122;5.404;2023-05-16T10:03:03;102311.72;;;13.03;63.33
71974;BME280;59840;52.122;5.404;2023-05-16T10:05:31;102317.38;;;12.89;61.08
71974;BME280;59840;52.122;5.404;2023-05-16T10:07:58;102313.75;;;12.71;63.04
71974;BME280;59840;52.122;5.404;2023-05-16T10:10:25;102315.94;;;12.56;65.42
71974;BME280;59840;52.122;5.404;2023-05-16T10:12:54;102320.16;;;12.46;62.96
71974;BME280;59840;52.122;5.404;2023-05-16T10:15:24;102326.25;;;12.64;64.03
71974;BME280;59840;52.122;5.404;2023-05-16T10:17:52;102319.91;;;12.84;59.50
71974;BME280;59840;52.122;5.404;2023-05-16T10:20:22;102327.03;;;13.01;57.96
71974;BME280;59840;52.122;5.404;2023-05-16T10:22:51;102318.03;;;13.02;59.80
71974;BME280;59840;52.122;5.404;2023-05-16T10:27:53;102328.31;;;12.81;63.58
71974;BME280;59840;52.122;5.404;2023-05-16T10:30:21;102320.44;;;12.74;64.64
71974;BME280;59840;52.122;5.404;2023-05-16T10:32:48;102326.09;;;12.78;65.81
71974;BME280;59840;52.122;5.404;2023-05-16T10:35:15;102335.81;;;12.65;62.16
71974;BME280;59840;52.122;5.404;2023-05-16T10:37:42;102327.06;;;12.65;64.52
71974;BME280;59840;52.122;5.404;2023-05-16T10:40:10;102339.28;;;12.66;59.75
71974;BME280;59840;52.122;5.404;2023-05-16T10:42:37;102326.41;;;12.69;60.45
71974;BME280;59840;52.122;5.404;2023-05-16T10:45:17;102322.28;;;12.73;61.37
71974;BME280;59840;52.122;5.404;2023-05-16T11:01:22;102316.88;;;13.17;65.04
71974;BME280;59840;52.122;5.404;2023-05-16T11:06:29;102312.25;;;13.24;60.72
71974;BME280;59840;52.122;5.404;2023-05-16T11:24:34;102327.41;;;12.87;55.04
71974;BME280;59840;52.122;5.404;2023-05-16T11:27:02;102338.44;;;12.84;58.45
71974;BME280;59840;52.122;5.404;2023-05-16T11:29:34;102330.03;;;12.87;58.45
71974;BME280;59840;52.122;5.404;2023-05-16T11:32:03;102336.25;;;12.81;57.92
71974;BME280;59840;52.122;5.404;2023-05-16T11:34:31;102330.06;;;12.68;59.90
71974;BME280;59840;52.122;5.404;2023-05-16T11:36:57;102334.47;;;12.56;59.67
71974;BME280;59840;52.122;5.404;2023-05-16T11:39:25;102330.28;;;12.49;59.97
71974;BME280;59840;52.122;5.404;2023-05-16T11:41:52;102338.81;;;12.51;60.91
71974;BME280;59840;52.122;5.404;2023-05-16T11:44:19;102337.72;;;12.58;61.57
71974;BME280;59840;52.122;5.404;2023-05-16T11:46:45;102335.44;;;12.62;62.95
71974;BME280;59840;52.122;5.404;2023-05-16T11:49:13;102344.25;;;12.56;63.60
71974;BME280;59840;52.122;5.404;2023-05-16T11:51:41;102342.72;;;12.48;62.24
71974;BME280;59840;52.122;5.404;2023-05-16T11:54:09;102340.22;;;12.35;61.38
71974;BME280;59840;52.122;5.404;2023-05-16T11:56:37;102340.88;;;12.30;62.19
71974;BME280;59840;52.122;5.404;2023-05-16T11:59:04;102347.34;;;12.34;61.64
71974;BME280;59840;52.122;5.404;2023-05-16T12:01:33;102350.00;;;12.34;64.49
71974;BME280;59840;52.122;5.404;2023-05-16T12:04:00;102337.50;;;12.41;63.45
71974;BME280;59840;52.122;5.404;2023-05-16T12:06:27;102341.25;;;12.52;63.76
71974;BME280;59840;52.122;5.404;2023-05-16T12:08:56;102339.19;;;12.54;63.54
71974;BME280;59840;52.122;5.404;2023-05-16T12:11:23;102349.66;;;12.67;63.49
71974;BME280;59840;52.122;5.404;2023-05-16T12:13:49;102351.41;;;12.73;61.58
71974;BME280;59840;52.122;5.404;2023-05-16T12:16:16;102350.53;;;12.80;60.70
71974;BME280;59840;52.122;5.404;2023-05-16T12:18:44;102338.91;;;12.81;60.83
71974;BME280;59840;52.122;5.404;2023-05-16T12:21:11;102349.84;;;12.84;61.38
71974;BME280;59840;52.122;5.404;2023-05-16T12:23:38;102346.50;;;12.77;62.39
71974;BME280;59840;52.122;5.404;2023-05-16T12:26:07;102357.59;;;12.67;62.74
71974;BME280;59840;52.122;5.404;2023-05-16T12:28:34;102359.66;;;12.65;64.63
71974;BME280;59840;52.122;5.404;2023-05-16T12:31:02;102338.63;;;12.70;65.12
71974;BME280;59840;52.122;5.404;2023-05-16T12:33:29;102346.03;;;12.80;63.62
71974;BME280;59840;52.122;5.404;2023-05-16T12:35:57;102363.91;;;12.85;61.55
71974;BME280;59840;52.122;5.404;2023-05-16T12:38:24;102348.69;;;12.80;61.87
71974;BME280;59840;52.122;5.404;2023-05-16T12:40:56;102352.84;;;12.88;63.86
71974;BME280;59840;52.122;5.404;2023-05-16T12:43:24;102346.59;;;12.82;62.54
71974;BME280;59840;52.122;5.404;2023-05-16T12:45:52;102344.31;;;12.86;63.76
71974;BME280;59840;52.122;5.404;2023-05-16T12:48:20;102341.97;;;12.96;63.76
71974;BME280;59840;52.122;5.404;2023-05-16T12:50:47;102341.06;;;13.20;64.51
71974;BME280;59840;52.122;5.404;2023-05-16T12:53:16;102328.94;;;13.43;62.69
71974;BME280;59840;52.122;5.404;2023-05-16T12:55:43;102339.84;;;13.34;63.52
71974;BME280;59840;52.122;5.404;2023-05-16T12:58:10;102350.84;;;13.20;62.68
71974;BME280;59840;52.122;5.404;2023-05-16T13:00:37;102354.19;;;12.97;60.82
71974;BME280;59840;52.122;5.404;2023-05-16T13:03:05;102361.34;;;12.78;62.72
71974;BME280;59840;52.122;5.404;2023-05-16T13:05:34;102350.09;;;12.64;61.67
71974;BME280;59840;52.122;5.404;2023-05-16T13:08:02;102365.66;;;12.54;62.68
71974;BME280;59840;52.122;5.404;2023-05-16T13:10:28;102358.38;;;12.50;63.83
71974;BME280;59840;52.122;5.404;2023-05-16T13:12:55;102354.09;;;12.49;64.52
71974;BME280;59840;52.122;5.404;2023-05-16T13:15:25;102355.66;;;12.56;65.60
71974;BME280;59840;52.122;5.404;2023-05-16T13:17:51;102353.47;;;12.71;64.36
71974;BME280;59840;52.122;5.404;2023-05-16T13:20:18;102353.78;;;12.82;64.46
71974;BME280;59840;52.122;5.404;2023-05-16T13:22:46;102363.09;;;12.84;64.36
71974;BME280;59840;52.122;5.404;2023-05-16T13:25:13;102360.03;;;12.69;63.46
71974;BME280;59840;52.122;5.404;2023-05-16T13:27:39;102356.09;;;12.53;63.18
71974;BME280;59840;52.122;5.404;2023-05-16T13:30:06;102359.88;;;12.46;64.62
71974;BME280;59840;52.122;5.404;2023-05-16T13:32:33;102351.78;;;12.40;64.43
71974;BME280;59840;52.122;5.404;2023-05-16T13:35:00;102356.69;;;12.37;65.57
71974;BME280;59840;52.122;5.404;2023-05-16T13:37:27;102363.59;;;12.38;63.83
71974;BME280;59840;52.122;5.404;2023-05-16T13:39:53;102370.09;;;12.42;64.22